Ouray, CO (81427)

2:18 AM MST on February 24, 2017 (GMT -0700)
Ouray | | Change Station

Elev 7736 ft 38.03 °N, 107.67 °W | Updated 9 seconds ago

Overcast
Overcast
17.6 °F
Feels Like 18 °F
N
0.0
Wind Variable Wind from SSE
Gusts 0.0 mph

Today
High -- | Low -- °F
--% Chance of Precip.
Yesterday
High -- | Low -- °F
Precip. -- in
Pressure 29.76 in
Visibility 1.0 miles
Clouds Overcast 600 ft
Windchill 18 °F
Dew Point 11 °F
Humidity 75%
Rainfall 0.00 in
Snow Depth Not available.
6:48 AM 5:59 PM
Waning Crescent, 6% visible
METAR KTEX 240915Z AUTO 00000KT 1SM SN OVC006 M11/M12 A2976 RMK AO2 T11101125
Pressure 29.76 in
Visibility 1.0 miles
Clouds Overcast 600 ft
Windchill 18 °F
Dew Point 11 °F
Humidity 75%
Rainfall 0.00 in
Snow Depth Not available.
6:48 AM 5:59 PM
Waning Crescent, 6% visible
METAR KTEX 240915Z AUTO 00000KT 1SM SN OVC006 M11/M12 A2976 RMK AO2 T11101125

Get Your Daily Forecast Email!

Thanks for signing up!

Be on the lookout for a verification email in your inbox.

You'll start receiving the daily forecast at 8 AM.

×

10-Day Weather Forecast

Almanac

Astronomy

Feb. 24, 2017 Rise Set
Actual Time
Civil Twilight
Nautical Twilight
Astronomical Twilight
Moon
Length of Visible Light
Length of Day
Tomorrow will be .
, % of the Moon is Illuminated

Today's Extremes

State Highs State Lows

Community

WunderPhotos

Upload Photos

1,962,540 photos uploaded!

WunderBlog® & News

Nearby

Air Quality

  Air Quality AQ Index Pollutant
Not available.

Snow Depth

Station Depth Elevation

Earthquake Activity

City Distance Mag. Time & Date
Minimum magnitude displayed is 2.5.

Coastal Water Temperatures

Place Temperature

Stations

Nearby Weather Stations

Station Location Temp. Windchill Dew Point Humidity Wind Precip. Elev Updated Type
                   

Watches & Warnings

There are currently no watches in effect.